Time;durP1;ratioP1;P1;durP2;ratioP2;P2;SDS_P1;SDS_P2;PMS_P1;PMS_P2;Temp;Humidity;BMP_temperature;BMP_pressure;BME280_temperature;BME280_humidity;BME280_pressure;Samples;Min_cycle;Max_cycle;Signal;HPM_P1;HPM_P2
2022/03/11 00:00:05;;;;;;;21.73;10.60;;;3.90;99.90;;;;;;5077698;28;20066;-70
2022/03/11 00:02:36;;;;;;;27.98;10.85;;;3.90;99.90;;;;;;5077604;28;20032;-70
2022/03/11 00:05:04;;;;;;;24.42;10.60;;;3.90;99.90;;;;;;5078206;28;20294;-70
2022/03/11 00:07:31;;;;;;;22.35;10.10;;;3.90;99.90;;;;;;5077181;28;20320;-71
2022/03/11 00:09:58;;;;;;;22.92;10.85;;;3.90;99.90;;;;;;5076626;28;20103;-71
2022/03/11 00:12:26;;;;;;;24.13;10.57;;;3.90;99.90;;;;;;5077079;28;20024;-71
2022/03/11 00:14:54;;;;;;;20.77;9.43;;;3.90;99.90;;;;;;5077124;28;20032;-71
2022/03/11 00:17:21;;;;;;;22.23;10.50;;;3.90;99.90;;;;;;5076356;28;20142;-70
2022/03/11 00:19:48;;;;;;;22.45;10.65;;;3.90;99.90;;;;;;5058717;28;20032;-70
2022/03/11 00:22:16;;;;;;;24.60;10.93;;;3.90;99.90;;;;;;5076490;28;20029;-71
2022/03/11 00:24:43;;;;;;;19.05;9.43;;;3.90;99.90;;;;;;5077183;28;20017;-71
2022/03/11 00:27:11;;;;;;;25.88;10.43;;;3.80;99.90;;;;;;5058695;28;20029;-71
2022/03/11 00:29:39;;;;;;;27.38;9.50;;;3.80;99.90;;;;;;5077155;28;20398;-71
2022/03/11 00:32:06;;;;;;;24.80;9.98;;;3.80;99.90;;;;;;5059631;28;20029;-70
2022/03/11 00:34:34;;;;;;;23.88;10.82;;;3.70;99.90;;;;;;5059504;28;20024;-70
2022/03/11 00:37:01;;;;;;;20.00;9.82;;;3.70;99.90;;;;;;5059514;28;20023;-70
2022/03/11 00:39:28;;;;;;;21.00;10.35;;;3.70;99.90;;;;;;5059445;28;20021;-70
2022/03/11 00:41:56;;;;;;;20.33;10.35;;;3.60;99.90;;;;;;5077705;28;20028;-70
2022/03/11 00:44:24;;;;;;;19.10;9.27;;;3.60;99.90;;;;;;5077777;28;20438;-71
2022/03/11 00:46:51;;;;;;;24.23;10.05;;;3.50;99.90;;;;;;5077697;28;20106;-71
2022/03/11 00:49:19;;;;;;;20.95;10.10;;;3.50;99.90;;;;;;5058871;28;20476;-70
2022/03/11 00:51:46;;;;;;;25.08;11.02;;;3.40;99.90;;;;;;5076259;28;20131;-71
2022/03/11 00:54:14;;;;;;;22.65;9.98;;;3.40;99.90;;;;;;5058450;28;20040;-70
2022/03/11 00:56:41;;;;;;;21.65;10.13;;;3.40;99.90;;;;;;5076180;28;20016;-70
2022/03/11 00:59:08;;;;;;;24.52;11.40;;;3.40;99.90;;;;;;5076158;28;20324;-71
2022/03/11 01:01:35;;;;;;;20.65;10.50;;;3.40;99.90;;;;;;5080172;28;20028;-70
2022/03/11 01:04:03;;;;;;;22.13;9.80;;;3.40;99.90;;;;;;5080119;28;20028;-70
2022/03/11 01:06:31;;;;;;;21.98;9.73;;;3.30;99.90;;;;;;5062340;28;20025;-71
2022/03/11 01:08:58;;;;;;;23.30;10.88;;;3.30;99.90;;;;;;5080559;28;20424;-71
2022/03/11 01:11:25;;;;;;;24.52;10.02;;;3.30;99.90;;;;;;5080754;28;20060;-71
2022/03/11 01:13:52;;;;;;;22.70;10.90;;;3.30;99.90;;;;;;5063089;28;20044;-71
2022/03/11 01:16:21;;;;;;;23.30;10.73;;;3.30;99.90;;;;;;5081040;28;20032;-71
2022/03/11 01:18:49;;;;;;;27.10;10.88;;;3.30;99.90;;;;;;5080619;28;20049;-70
2022/03/11 01:21:17;;;;;;;26.80;11.35;;;3.30;99.90;;;;;;5080871;28;20035;-71
2022/03/11 01:23:44;;;;;;;20.77;9.63;;;3.30;99.90;;;;;;5080867;28;20111;-70
2022/03/11 01:26:12;;;;;;;23.88;10.60;;;3.30;99.90;;;;;;5081128;28;20020;-70
2022/03/11 01:28:42;;;;;;;25.65;10.60;;;3.30;99.90;;;;;;5080449;28;20078;-71
2022/03/11 01:31:11;;;;;;;24.63;11.50;;;3.30;99.90;;;;;;5080468;28;20363;-71
2022/03/11 01:33:43;;;;;;;25.13;10.82;;;3.30;99.90;;;;;;5079548;28;20044;-71
2022/03/11 01:36:11;;;;;;;27.63;11.07;;;3.30;99.90;;;;;;5079479;28;20017;-70
2022/03/11 01:38:39;;;;;;;24.25;10.50;;;3.30;99.90;;;;;;5079436;28;20023;-71
2022/03/11 01:41:06;;;;;;;26.35;10.82;;;3.20;99.90;;;;;;5079532;28;20021;-70
2022/03/11 01:44:10;;;;;;;27.48;10.63;;;3.20;99.90;;;;;;5079380;28;20329;-70
2022/03/11 01:46:39;;;;;;;21.48;10.65;;;3.20;99.90;;;;;;5079383;28;20020;-70
2022/03/11 01:49:09;;;;;;;22.67;10.10;;;3.10;99.90;;;;;;5079780;28;20024;-70
2022/03/11 01:51:41;;;;;;;28.00;9.90;;;3.00;99.90;;;;;;5079296;28;20021;-70
2022/03/11 01:54:10;;;;;;;29.48;9.98;;;3.00;99.90;;;;;;5079303;28;20023;-71
2022/03/11 01:56:38;;;;;;;20.77;9.80;;;3.00;99.90;;;;;;5080070;28;20028;-70
2022/03/11 01:59:07;;;;;;;29.10;10.90;;;3.00;99.90;;;;;;5062249;28;20020;-70
2022/03/11 02:01:34;;;;;;;21.30;10.73;;;2.90;99.90;;;;;;5081114;28;20309;-70
2022/03/11 02:04:02;;;;;;;23.35;10.45;;;2.90;99.90;;;;;;5080472;28;20024;-71
2022/03/11 02:06:30;;;;;;;21.63;10.40;;;2.80;99.90;;;;;;5080446;28;20021;-70
2022/03/11 02:08:59;;;;;;;22.67;10.95;;;2.70;99.90;;;;;;5080349;28;20431;-70
2022/03/11 02:11:26;;;;;;;22.92;9.75;;;2.60;99.90;;;;;;5079260;28;20028;-71
2022/03/11 02:13:59;;;;;;;25.05;10.27;;;2.50;99.90;;;;;;5061810;28;20021;-70
2022/03/11 02:16:32;;;;;;;28.15;11.02;;;2.40;99.90;;;;;;5078660;28;20027;-71
2022/03/11 02:19:00;;;;;;;29.17;10.40;;;2.30;99.90;;;;;;5086135;28;20348;-71
2022/03/11 02:21:28;;;;;;;22.60;11.45;;;2.30;99.90;;;;;;5099578;28;20052;-70
2022/03/11 02:23:58;;;;;;;25.05;11.20;;;2.20;99.90;;;;;;5097908;28;20077;-70
2022/03/11 02:26:27;;;;;;;24.58;10.38;;;2.10;99.90;;;;;;5098825;28;20024;-70
2022/03/11 02:28:56;;;;;;;24.23;10.48;;;2.10;99.90;;;;;;5098807;28;20054;-70
2022/03/11 02:31:26;;;;;;;21.75;11.02;;;2.00;99.90;;;;;;5098789;28;20054;-70
2022/03/11 02:33:53;;;;;;;21.48;9.45;;;2.00;99.90;;;;;;5098679;28;20019;-70
2022/03/11 02:36:21;;;;;;;20.95;9.57;;;2.00;99.90;;;;;;5098731;28;20020;-70
2022/03/11 02:38:49;;;;;;;23.27;9.98;;;2.10;99.90;;;;;;5100277;28;20103;-70
2022/03/11 02:41:17;;;;;;;21.90;10.27;;;2.20;99.90;;;;;;5100159;28;20024;-70
2022/03/11 02:43:44;;;;;;;24.15;10.55;;;2.20;99.90;;;;;;5099917;28;20020;-70
2022/03/11 02:46:13;;;;;;;25.10;10.18;;;2.20;99.90;;;;;;5099349;28;20367;-70
2022/03/11 02:48:42;;;;;;;21.85;9.95;;;2.30;99.90;;;;;;5099799;28;20103;-70
2022/03/11 02:51:09;;;;;;;20.75;9.70;;;2.30;99.90;;;;;;5099856;28;20372;-70
2022/03/11 02:53:40;;;;;;;21.73;9.80;;;2.30;99.90;;;;;;5098258;28;20051;-70
2022/03/11 02:56:10;;;;;;;20.33;9.10;;;2.40;99.90;;;;;;5099313;28;20023;-71
2022/03/11 02:58:41;;;;;;;21.08;10.10;;;2.40;99.90;;;;;;5098217;28;20038;-71
2022/03/11 03:01:09;;;;;;;19.00;9.35;;;2.40;99.90;;;;;;5098229;28;20099;-70
2022/03/11 03:03:37;;;;;;;24.05;9.02;;;2.40;99.90;;;;;;5098625;28;20100;-70
2022/03/11 03:06:04;;;;;;;21.85;10.32;;;2.40;99.90;;;;;;5098908;28;20379;-70
2022/03/11 03:08:32;;;;;;;20.50;9.75;;;2.40;99.90;;;;;;5096926;28;20077;-70
2022/03/11 03:11:00;;;;;;;20.00;9.02;;;2.30;99.90;;;;;;5097983;28;20028;-70
2022/03/11 03:13:28;;;;;;;21.65;9.85;;;2.30;99.90;;;;;;5098443;28;20044;-71
2022/03/11 03:15:55;;;;;;;20.25;9.57;;;2.30;99.90;;;;;;5096706;28;20370;-70
2022/03/11 03:18:22;;;;;;;22.40;9.85;;;2.20;99.90;;;;;;5096454;28;20471;-71
2022/03/11 03:20:49;;;;;;;25.40;9.85;;;2.30;99.90;;;;;;5097498;28;20024;-70
2022/03/11 03:23:17;;;;;;;24.13;10.02;;;2.30;99.90;;;;;;5096987;28;20503;-70
2022/03/11 03:25:45;;;;;;;19.77;9.38;;;2.20;99.90;;;;;;5098347;28;20073;-70
2022/03/11 03:28:12;;;;;;;22.55;9.88;;;2.20;99.90;;;;;;5098586;28;20028;-70
2022/03/11 03:30:39;;;;;;;22.02;9.43;;;2.20;99.90;;;;;;5097257;28;20031;-70
2022/03/11 03:33:07;;;;;;;22.38;10.15;;;2.10;99.90;;;;;;5099081;28;20024;-70
2022/03/11 03:35:34;;;;;;;19.10;8.77;;;2.00;99.90;;;;;;5098418;28;20298;-70
2022/03/11 03:38:01;;;;;;;23.15;10.27;;;2.00;99.90;;;;;;5098643;28;20058;-70
2022/03/11 03:40:28;;;;;;;19.77;8.60;;;1.80;99.90;;;;;;5098061;28;20020;-70
2022/03/11 03:42:56;;;;;;;22.92;10.13;;;1.80;99.90;;;;;;5096506;28;20028;-70
2022/03/11 03:45:23;;;;;;;22.05;10.75;;;1.70;99.90;;;;;;5097552;28;20020;-70
2022/03/11 03:47:50;;;;;;;29.83;11.95;;;1.70;99.90;;;;;;5096194;28;20024;-70
2022/03/11 03:50:17;;;;;;;34.85;13.93;;;1.60;99.90;;;;;;5097748;28;20024;-70
2022/03/11 03:52:44;;;;;;;30.65;10.80;;;1.60;99.90;;;;;;5096032;28;20309;-70
2022/03/11 03:55:11;;;;;;;35.47;13.60;;;1.50;99.90;;;;;;5097692;28;20016;-70
2022/03/11 03:57:39;;;;;;;26.05;10.75;;;1.50;99.90;;;;;;5096036;28;20020;-70
2022/03/11 04:00:08;;;;;;;22.55;10.77;;;1.50;99.90;;;;;;5097057;28;20024;-71
2022/03/11 04:02:36;;;;;;;21.63;9.68;;;1.50;99.90;;;;;;5097726;28;20039;-70
2022/03/11 04:05:07;;;;;;;23.30;9.60;;;1.50;99.90;;;;;;5096802;28;20301;-70
2022/03/11 04:07:35;;;;;;;26.67;8.85;;;1.50;99.90;;;;;;5098272;28;20030;-70
2022/03/11 04:10:04;;;;;;;23.63;9.98;;;1.50;99.90;;;;;;5097809;28;20034;-70
2022/03/11 04:12:32;;;;;;;23.15;9.57;;;1.50;99.90;;;;;;5098327;28;20047;-70
2022/03/11 04:15:00;;;;;;;20.80;8.93;;;1.50;99.90;;;;;;5098253;28;20038;-70
2022/03/11 04:17:27;;;;;;;22.58;10.02;;;1.50;99.90;;;;;;5096659;28;20103;-70
2022/03/11 04:19:55;;;;;;;20.08;9.60;;;1.50;99.90;;;;;;5059623;28;20120;-70
2022/03/11 04:22:22;;;;;;;21.70;9.88;;;1.40;99.90;;;;;;5077172;28;20111;-70
2022/03/11 04:24:49;;;;;;;24.55;10.02;;;1.40;99.90;;;;;;5042003;28;20028;-70
2022/03/11 04:27:17;;;;;;;23.02;9.73;;;1.40;99.90;;;;;;5076515;28;20081;-70
2022/03/11 04:29:44;;;;;;;24.40;10.52;;;1.40;99.90;;;;;;5076977;28;20066;-70
2022/03/11 04:32:12;;;;;;;19.40;9.40;;;1.40;99.90;;;;;;5076430;28;20112;-70
2022/03/11 04:34:39;;;;;;;21.10;9.52;;;1.40;99.90;;;;;;5058898;28;20092;-70
2022/03/11 04:37:07;;;;;;;22.02;9.98;;;1.30;99.90;;;;;;5059428;28;20024;-70
2022/03/11 04:39:34;;;;;;;22.30;9.05;;;1.20;99.90;;;;;;5076310;28;20028;-70
2022/03/11 04:42:02;;;;;;;18.67;8.77;;;1.10;99.90;;;;;;5076607;28;20028;-70
2022/03/11 04:44:29;;;;;;;20.80;9.80;;;1.10;99.90;;;;;;5077043;28;20021;-70
2022/03/11 04:46:56;;;;;;;19.38;8.88;;;1.10;99.90;;;;;;5077826;28;20412;-70
2022/03/11 04:49:23;;;;;;;20.77;9.93;;;1.10;99.90;;;;;;5059377;28;20028;-70
2022/03/11 04:51:52;;;;;;;22.83;10.13;;;1.20;99.90;;;;;;5077683;28;20060;-70
2022/03/11 04:54:19;;;;;;;21.02;9.88;;;1.20;99.90;;;;;;5075830;28;20035;-70
2022/03/11 04:56:46;;;;;;;23.00;10.13;;;1.20;99.90;;;;;;5059484;28;20145;-70
2022/03/11 04:59:13;;;;;;;22.20;9.70;;;1.20;99.90;;;;;;5077522;28;20012;-70
2022/03/11 05:01:41;;;;;;;20.65;9.48;;;1.20;99.90;;;;;;5077014;28;20085;-70
2022/03/11 05:04:08;;;;;;;21.88;8.52;;;1.20;99.90;;;;;;5058795;28;20021;-70
2022/03/11 05:06:35;;;;;;;19.15;8.32;;;1.30;99.90;;;;;;5076041;28;20070;-70
2022/03/11 05:09:03;;;;;;;24.10;9.27;;;1.30;99.90;;;;;;5058258;28;20120;-70
2022/03/11 05:11:31;;;;;;;21.83;9.02;;;1.20;99.90;;;;;;5075911;28;20025;-70
2022/03/11 05:13:59;;;;;;;18.95;9.10;;;1.20;99.90;;;;;;5076008;28;20020;-70
2022/03/11 05:16:26;;;;;;;20.83;8.30;;;1.20;99.90;;;;;;5075905;28;20082;-70
2022/03/11 05:18:53;;;;;;;18.75;8.73;;;1.20;99.90;;;;;;5076318;28;20074;-70
2022/03/11 05:21:21;;;;;;;23.77;9.55;;;1.20;99.90;;;;;;5076317;28;20024;-70
2022/03/11 05:23:50;;;;;;;16.98;7.70;;;1.20;99.90;;;;;;5058112;28;20026;-70
2022/03/11 05:26:28;;;;;;;22.13;9.93;;;1.20;99.90;;;;;;5076587;28;20024;-70
2022/03/11 05:28:58;;;;;;;24.40;10.45;;;1.10;99.90;;;;;;5077346;28;20024;-70
2022/03/11 05:31:26;;;;;;;27.63;9.40;;;1.10;99.90;;;;;;5076671;28;20020;-70
2022/03/11 05:33:55;;;;;;;24.88;9.90;;;1.10;99.90;;;;;;5058982;28;20324;-70
2022/03/11 05:36:25;;;;;;;20.85;8.57;;;1.10;99.90;;;;;;5076923;28;20065;-70
2022/03/11 05:38:54;;;;;;;19.27;10.27;;;1.00;99.90;;;;;;5077189;28;20020;-70
2022/03/11 05:41:21;;;;;;;19.08;9.05;;;1.00;99.90;;;;;;5058921;28;20025;-71
2022/03/11 05:43:49;;;;;;;23.90;9.90;;;1.00;99.90;;;;;;5076666;28;20329;-70
2022/03/11 05:46:17;;;;;;;25.60;9.50;;;1.00;99.90;;;;;;5076713;28;20479;-70
2022/03/11 05:48:45;;;;;;;19.08;8.52;;;1.00;99.90;;;;;;5079048;28;20027;-70
2022/03/11 05:51:12;;;;;;;21.75;9.73;;;1.00;99.90;;;;;;5079702;28;20032;-70
2022/03/11 05:53:39;;;;;;;23.30;9.25;;;1.00;99.90;;;;;;5079421;28;20020;-70
2022/03/11 05:56:07;;;;;;;23.58;9.23;;;1.00;99.90;;;;;;5079293;28;20049;-71
2022/03/11 05:58:35;;;;;;;22.88;9.50;;;1.00;99.90;;;;;;5079087;28;20020;-71
2022/03/11 06:01:03;;;;;;;22.30;8.98;;;1.00;99.90;;;;;;5079417;28;20078;-71
2022/03/11 06:03:31;;;;;;;19.02;8.80;;;1.00;99.90;;;;;;5078962;28;20023;-71
2022/03/11 06:05:58;;;;;;;23.70;10.85;;;1.00;99.90;;;;;;5061307;28;20310;-71
2022/03/11 06:08:26;;;;;;;20.48;8.38;;;1.00;99.90;;;;;;5079103;28;20034;-71
2022/03/11 06:10:53;;;;;;;19.25;7.53;;;1.10;99.90;;;;;;5079664;28;20021;-71
2022/03/11 06:13:21;;;;;;;22.23;8.57;;;1.10;99.90;;;;;;5080743;28;20344;-71
2022/03/11 06:15:48;;;;;;;18.25;8.57;;;1.10;99.90;;;;;;5061919;28;20070;-71
2022/03/11 06:18:18;;;;;;;15.40;8.00;;;1.10;99.90;;;;;;5077538;28;20079;-73
2022/03/11 06:20:45;;;;;;;20.15;8.70;;;1.10;99.90;;;;;;5079539;28;20417;-72
2022/03/11 06:23:13;;;;;;;20.77;8.57;;;1.10;99.90;;;;;;5079756;28;20510;-73
2022/03/11 06:25:45;;;;;;;19.10;7.75;;;1.20;99.90;;;;;;5079747;28;20021;-73
2022/03/11 06:28:12;;;;;;;20.35;8.38;;;1.20;99.90;;;;;;5079040;28;20022;-73
2022/03/11 06:30:40;;;;;;;15.13;7.50;;;1.30;99.90;;;;;;5078876;28;20031;-75
2022/03/11 06:33:07;;;;;;;15.70;7.22;;;1.30;99.90;;;;;;5078859;28;20028;-72
2022/03/11 06:35:34;;;;;;;24.50;8.40;;;1.30;99.90;;;;;;5078547;28;20021;-74
2022/03/11 06:38:01;;;;;;;18.98;8.95;;;1.30;99.90;;;;;;5078382;28;20028;-75
2022/03/11 06:40:29;;;;;;;17.77;8.25;;;1.30;99.90;;;;;;5078856;28;20028;-76
2022/03/11 06:42:56;;;;;;;20.48;8.73;;;1.30;99.90;;;;;;5060525;28;20035;-77
2022/03/11 06:45:23;;;;;;;19.15;8.15;;;1.40;99.90;;;;;;5059858;28;20047;-75
2022/03/11 06:47:51;;;;;;;18.40;8.10;;;1.40;99.90;;;;;;5078877;28;20021;-80
2022/03/11 06:50:18;;;;;;;20.85;7.68;;;1.40;99.90;;;;;;5078331;28;20077;-79
2022/03/11 06:52:47;;;;;;;15.30;8.05;;;1.40;99.90;;;;;;5079208;28;20074;-75
2022/03/11 06:55:15;;;;;;;20.23;8.13;;;1.40;99.90;;;;;;5079149;28;20027;-74
2022/03/11 06:57:44;;;;;;;14.75;8.50;;;1.40;99.90;;;;;;5078758;28;20025;-71
2022/03/11 07:00:13;;;;;;;15.38;7.07;;;1.40;99.90;;;;;;5078766;28;20031;-70
2022/03/11 07:02:40;;;;;;;17.38;7.60;;;1.40;99.90;;;;;;5078701;28;20021;-72
2022/03/11 07:05:08;;;;;;;15.43;7.10;;;1.40;99.90;;;;;;5078729;28;20024;-72
2022/03/11 07:07:35;;;;;;;16.65;6.97;;;1.50;99.90;;;;;;5078867;28;20031;-72
2022/03/11 07:10:04;;;;;;;17.67;7.32;;;1.50;99.90;;;;;;5078999;28;20024;-73
2022/03/11 07:12:32;;;;;;;18.52;8.73;;;1.50;99.90;;;;;;5077633;28;20021;-72
2022/03/11 07:15:05;;;;;;;15.15;7.60;;;1.60;99.90;;;;;;5077557;28;20032;-71
2022/03/11 07:17:33;;;;;;;14.15;6.10;;;1.60;99.90;;;;;;5077551;28;20296;-73
2022/03/11 07:20:00;;;;;;;14.82;5.43;;;1.60;99.90;;;;;;5077486;28;20016;-72
2022/03/11 07:22:29;;;;;;;16.13;6.65;;;1.70;99.90;;;;;;5059666;28;20024;-72
2022/03/11 07:24:58;;;;;;;14.43;6.10;;;1.70;99.90;;;;;;5077710;28;20341;-70
2022/03/11 07:27:26;;;;;;;14.40;6.50;;;1.80;99.90;;;;;;5078026;28;20032;-70
2022/03/11 07:29:56;;;;;;;14.38;6.05;;;1.80;99.50;;;;;;5077863;28;20070;-70
2022/03/11 07:32:25;;;;;;;12.25;6.78;;;1.80;99.30;;;;;;5077204;28;20063;-70
2022/03/11 07:34:52;;;;;;;13.32;6.47;;;1.90;98.70;;;;;;5060420;28;20016;-71
2022/03/11 07:37:21;;;;;;;14.50;6.53;;;1.90;98.20;;;;;;5078069;28;20104;-70
2022/03/11 07:39:48;;;;;;;15.30;6.00;;;2.00;97.40;;;;;;5078042;28;20016;-72
2022/03/11 07:42:16;;;;;;;9.55;5.13;;;2.00;96.90;;;;;;5060435;28;20059;-69
2022/03/11 07:44:44;;;;;;;14.57;6.20;;;2.10;96.10;;;;;;5078463;28;20052;-72
2022/03/11 07:47:11;;;;;;;11.98;5.78;;;2.10;95.50;;;;;;5078374;28;20024;-72
2022/03/11 07:49:39;;;;;;;16.67;5.82;;;2.10;95.50;;;;;;5078330;28;20104;-72
2022/03/11 07:52:07;;;;;;;12.02;5.55;;;2.20;94.50;;;;;;5059828;28;20107;-72
2022/03/11 07:54:34;;;;;;;9.90;5.63;;;2.30;93.80;;;;;;5059037;28;20021;-71
2022/03/11 07:57:02;;;;;;;9.77;5.07;;;2.30;93.70;;;;;;5076833;28;20024;-71
2022/03/11 07:59:31;;;;;;;13.65;5.05;;;2.30;92.90;;;;;;5077036;28;20103;-69
2022/03/11 08:02:03;;;;;;;12.75;5.38;;;2.30;92.60;;;;;;5076835;28;20054;-69
2022/03/11 08:04:32;;;;;;;21.23;5.53;;;2.40;91.00;;;;;;5076745;28;20029;-69
2022/03/11 08:07:05;;;;;;;10.68;4.65;;;2.50;90.70;;;;;;5077248;28;20031;-69
2022/03/11 08:09:42;;;;;;;10.98;5.15;;;2.50;90.60;;;;;;5076917;28;20025;-69
2022/03/11 08:12:13;;;;;;;11.40;4.30;;;2.60;89.90;;;;;;5076726;28;20029;-69
2022/03/11 08:14:43;;;;;;;9.43;4.88;;;2.60;87.30;;;;;;5076616;28;20025;-69
2022/03/11 08:17:10;;;;;;;10.55;4.53;;;2.70;87.00;;;;;;5077505;28;20020;-69
2022/03/11 08:19:38;;;;;;;10.68;4.53;;;2.70;86.20;;;;;;5093935;28;20044;-69
2022/03/11 08:22:07;;;;;;;9.88;4.40;;;2.80;84.90;;;;;;5097937;28;20024;-69
2022/03/11 08:24:34;;;;;;;15.98;4.43;;;2.80;83.20;;;;;;5098153;28;20337;-69
2022/03/11 08:27:02;;;;;;;9.38;4.75;;;2.90;80.90;;;;;;5096555;28;20115;-69
2022/03/11 08:29:33;;;;;;;12.55;4.55;;;3.00;80.00;;;;;;5097979;28;20028;-69
2022/03/11 08:32:03;;;;;;;14.50;5.30;;;3.00;80.20;;;;;;5097663;28;20028;-69
2022/03/11 08:34:31;;;;;;;11.85;4.72;;;3.00;79.20;;;;;;5097032;28;20070;-69
2022/03/11 08:36:59;;;;;;;7.85;4.25;;;3.10;77.70;;;;;;5095632;28;20027;-69
2022/03/11 08:39:26;;;;;;;7.82;4.35;;;3.10;77.20;;;;;;5096569;28;20219;-69
2022/03/11 08:41:55;;;;;;;11.55;4.82;;;3.20;77.00;;;;;;5097014;28;20415;-69
2022/03/11 08:44:22;;;;;;;11.57;4.43;;;3.30;75.10;;;;;;5097081;28;20063;-73
2022/03/11 08:46:49;;;;;;;8.63;4.15;;;3.40;75.20;;;;;;5096413;28;20070;-69
2022/03/11 08:49:16;;;;;;;11.45;4.93;;;3.40;74.70;;;;;;5097067;28;20028;-69
2022/03/11 08:51:43;;;;;;;8.38;4.22;;;3.50;72.10;;;;;;5097166;28;20404;-69
2022/03/11 08:54:11;;;;;;;8.10;4.15;;;3.50;71.40;;;;;;5096730;28;20413;-69
2022/03/11 08:56:40;;;;;;;8.65;3.90;;;3.60;71.20;;;;;;5095896;28;20016;-69
2022/03/11 08:59:07;;;;;;;8.45;3.70;;;3.60;71.20;;;;;;5097904;28;20024;-69
2022/03/11 09:01:35;;;;;;;8.18;3.80;;;3.70;69.30;;;;;;5097739;28;20554;-69
2022/03/11 09:04:02;;;;;;;8.35;3.80;;;3.70;69.00;;;;;;5096281;28;20055;-69
2022/03/11 09:06:30;;;;;;;8.48;4.10;;;3.80;69.20;;;;;;5097856;28;20024;-69
2022/03/11 09:08:57;;;;;;;10.40;4.20;;;3.80;69.10;;;;;;5097279;28;20074;-69
2022/03/11 09:11:25;;;;;;;8.05;3.50;;;3.90;68.30;;;;;;5097872;28;20139;-70
2022/03/11 09:13:53;;;;;;;12.48;4.80;;;3.90;68.30;;;;;;5097230;28;20017;-70
2022/03/11 09:16:20;;;;;;;9.00;4.75;;;4.00;67.90;;;;;;5095395;28;20020;-68
2022/03/11 09:18:48;;;;;;;9.38;4.32;;;4.00;68.40;;;;;;5094927;28;20042;-68
2022/03/11 09:21:16;;;;;;;9.80;4.80;;;4.10;67.00;;;;;;5097540;28;20016;-68
2022/03/11 09:23:43;;;;;;;13.63;4.35;;;4.20;66.60;;;;;;5099519;28;20024;-68
2022/03/11 09:26:10;;;;;;;9.77;4.55;;;4.20;66.70;;;;;;5100599;28;20064;-68
2022/03/11 09:28:37;;;;;;;10.75;4.43;;;4.20;67.20;;;;;;5100220;28;20040;-68
2022/03/11 09:31:08;;;;;;;8.15;3.70;;;4.30;66.70;;;;;;5100402;28;20028;-68
2022/03/11 09:33:37;;;;;;;11.07;4.78;;;4.40;66.30;;;;;;5100429;28;20046;-68
2022/03/11 09:36:06;;;;;;;8.75;4.15;;;4.40;65.60;;;;;;5099760;28;20012;-68
2022/03/11 09:38:33;;;;;;;7.90;3.92;;;4.50;64.60;;;;;;5100450;28;20349;-68
2022/03/11 09:41:02;;;;;;;7.53;3.22;;;4.60;64.00;;;;;;5100855;28;20012;-68
2022/03/11 09:43:30;;;;;;;8.68;3.75;;;4.60;63.70;;;;;;5099589;28;20416;-68
2022/03/11 09:45:59;;;;;;;8.77;3.75;;;4.70;64.00;;;;;;5100875;28;20293;-68
2022/03/11 09:48:26;;;;;;;10.15;4.57;;;4.70;62.50;;;;;;5101119;28;20020;-68
2022/03/11 09:50:54;;;;;;;9.27;4.10;;;4.70;62.30;;;;;;5100617;28;20027;-68
2022/03/11 09:53:21;;;;;;;9.05;4.40;;;4.70;62.40;;;;;;5100405;28;20020;-68
2022/03/11 09:55:49;;;;;;;7.95;3.65;;;4.80;62.00;;;;;;5100406;28;20377;-68
2022/03/11 09:58:17;;;;;;;9.13;3.60;;;4.80;61.20;;;;;;5099862;28;20027;-68
2022/03/11 10:00:48;;;;;;;6.50;3.50;;;4.90;61.20;;;;;;5099293;28;20019;-69
2022/03/11 10:03:15;;;;;;;8.90;3.50;;;5.00;60.60;;;;;;5099308;28;20077;-68
2022/03/11 10:05:53;;;;;;;9.45;3.50;;;5.10;60.20;;;;;;5099843;28;20050;-68
2022/03/11 10:08:36;;;;;;;8.48;3.88;;;5.20;58.90;;;;;;5099136;28;20028;-69
2022/03/11 10:11:25;;;;;;;6.30;3.38;;;5.30;58.00;;;;;;5098351;28;20051;-69
2022/03/11 10:14:06;;;;;;;10.10;3.75;;;5.30;57.30;;;;;;5100543;28;20073;-69
2022/03/11 10:16:34;;;;;;;8.10;3.58;;;5.40;58.10;;;;;;5099526;28;20051;-69
2022/03/11 10:19:07;;;;;;;7.10;3.38;;;5.40;56.50;;;;;;5097672;28;20436;-70
2022/03/11 10:21:43;;;;;;;7.72;3.60;;;5.50;55.90;;;;;;5100026;28;20461;-69
2022/03/11 10:24:13;;;;;;;7.18;3.72;;;5.60;55.10;;;;;;5100413;28;20027;-69
2022/03/11 10:26:44;;;;;;;7.45;3.45;;;5.70;54.90;;;;;;5099946;28;20493;-69
2022/03/11 10:29:17;;;;;;;9.95;3.67;;;5.80;55.50;;;;;;5100295;28;20423;-70
2022/03/11 10:31:47;;;;;;;6.05;3.15;;;5.80;54.40;;;;;;5099591;28;20031;-69
2022/03/11 10:34:28;;;;;;;7.90;4.13;;;5.90;53.80;;;;;;5097920;28;20024;-69
2022/03/11 10:37:07;;;;;;;7.93;2.92;;;5.90;53.50;;;;;;5100322;28;20093;-69
2022/03/11 10:39:39;;;;;;;11.98;4.30;;;6.00;53.50;;;;;;5099143;28;20409;-70
2022/03/11 10:42:27;;;;;;;7.10;3.45;;;6.00;53.50;;;;;;5097488;28;20483;-71
2022/03/11 10:45:10;;;;;;;6.68;3.50;;;6.10;53.20;;;;;;5099051;28;20023;-71
2022/03/11 10:47:39;;;;;;;8.75;3.60;;;6.10;53.40;;;;;;5097475;28;20024;-71
2022/03/11 10:50:12;;;;;;;7.10;2.85;;;6.20;54.10;;;;;;5098593;28;20028;-69
2022/03/11 10:52:48;;;;;;;6.75;3.20;;;6.30;53.70;;;;;;5098326;28;20028;-72
2022/03/11 10:55:23;;;;;;;8.80;3.35;;;6.30;53.30;;;;;;5097238;28;20017;-71
2022/03/11 10:57:55;;;;;;;6.68;3.28;;;6.40;53.50;;;;;;5098918;28;20020;-70
2022/03/11 11:00:32;;;;;;;9.57;4.00;;;6.50;54.40;;;;;;5098682;28;20374;-72
2022/03/11 11:03:01;;;;;;;6.72;3.65;;;6.60;54.10;;;;;;5098807;28;20042;-73
2022/03/11 11:05:30;;;;;;;8.48;3.85;;;6.70;53.20;;;;;;5097974;28;20051;-73
2022/03/11 11:07:59;;;;;;;7.68;3.72;;;6.70;53.70;;;;;;5099155;28;20028;-71
2022/03/11 11:10:29;;;;;;;5.28;2.85;;;6.80;53.50;;;;;;5099184;28;20316;-71
2022/03/11 11:12:57;;;;;;;7.18;3.38;;;6.90;52.20;;;;;;5097657;28;20024;-71
2022/03/11 11:15:24;;;;;;;9.02;3.53;;;6.90;52.00;;;;;;5099132;28;20043;-72
2022/03/11 11:17:53;;;;;;;7.65;3.55;;;7.00;51.80;;;;;;5097879;28;20050;-71
2022/03/11 11:20:34;;;;;;;6.75;3.50;;;7.10;52.60;;;;;;5098795;28;20094;-70
2022/03/11 11:23:09;;;;;;;8.23;3.80;;;7.10;51.90;;;;;;5098415;28;20316;-70
2022/03/11 11:25:38;;;;;;;6.05;3.33;;;7.20;52.40;;;;;;5098203;28;20513;-70
2022/03/11 11:28:20;;;;;;;8.55;3.50;;;7.30;51.20;;;;;;5098423;28;20119;-70
2022/03/11 11:30:53;;;;;;;8.02;3.28;;;7.40;51.00;;;;;;5098203;28;20435;-70
2022/03/11 11:33:22;;;;;;;5.05;2.55;;;7.50;50.90;;;;;;5098037;28;20420;-71
2022/03/11 11:36:03;;;;;;;9.63;3.05;;;7.60;50.70;;;;;;5098107;28;20016;-71
2022/03/11 11:38:33;;;;;;;7.32;3.40;;;7.60;50.40;;;;;;5096421;28;20354;-70
2022/03/11 11:41:03;;;;;;;9.95;4.10;;;7.70;50.50;;;;;;5098137;28;20024;-70
2022/03/11 11:43:32;;;;;;;7.20;3.70;;;7.70;50.80;;;;;;5097643;28;20016;-70
2022/03/11 11:46:07;;;;;;;5.55;3.03;;;7.80;50.60;;;;;;5097548;28;20436;-70
2022/03/11 11:48:45;;;;;;;7.22;3.08;;;7.90;50.20;;;;;;5098265;28;20027;-70
2022/03/11 11:51:14;;;;;;;8.40;3.80;;;8.00;50.50;;;;;;5098741;28;20050;-71
2022/03/11 11:53:50;;;;;;;8.60;4.05;;;8.00;50.80;;;;;;5097111;28;20416;-71
2022/03/11 11:56:34;;;;;;;8.30;3.60;;;8.00;51.10;;;;;;5098081;28;20024;-72
2022/03/11 11:59:16;;;;;;;7.55;3.30;;;8.10;51.20;;;;;;5098072;28;20020;-70
2022/03/11 12:01:48;;;;;;;6.70;3.75;;;8.10;51.00;;;;;;5098173;28;20427;-72
2022/03/11 12:04:33;;;;;;;8.13;4.13;;;8.10;51.00;;;;;;5097334;28;20028;-69
2022/03/11 12:07:17;;;;;;;9.02;3.35;;;8.20;50.60;;;;;;5097552;28;20031;-69
2022/03/11 12:09:53;;;;;;;8.55;3.28;;;8.30;50.20;;;;;;5096884;28;20041;-70
2022/03/11 12:12:24;;;;;;;6.13;3.22;;;8.30;50.50;;;;;;5097827;28;20031;-70
2022/03/11 12:15:08;;;;;;;9.20;3.70;;;8.40;50.60;;;;;;5097668;28;20019;-78
2022/03/11 12:17:44;;;;;;;9.18;3.70;;;8.40;50.10;;;;;;5095008;28;20103;-73
2022/03/11 12:20:33;;;;;;;7.18;3.90;;;8.50;50.50;;;;;;5076435;28;20031;-73
2022/03/11 12:23:08;;;;;;;6.75;3.05;;;8.60;51.00;;;;;;5077075;28;20078;-73
2022/03/11 12:25:40;;;;;;;8.75;4.43;;;8.60;50.30;;;;;;5076551;28;20021;-72
2022/03/11 12:28:16;;;;;;;12.38;3.72;;;8.70;50.10;;;;;;5059673;28;20041;-69
2022/03/11 12:30:55;;;;;;;8.82;4.07;;;8.70;49.80;;;;;;5077412;28;20031;-70
2022/03/11 12:33:44;;;;;;;12.45;4.38;;;8.80;49.80;;;;;;5059498;28;20359;-70
2022/03/11 12:36:18;;;;;;;14.90;5.45;;;8.90;50.00;;;;;;5076965;28;20074;-70
2022/03/11 12:38:47;;;;;;;12.02;3.60;;;9.00;50.00;;;;;;5077299;28;20028;-70
2022/03/11 12:41:17;;;;;;;7.53;4.05;;;9.00;48.90;;;;;;5059539;28;20036;-70
2022/03/11 12:43:46;;;;;;;8.13;4.70;;;9.10;49.50;;;;;;5077508;28;20024;-70
2022/03/11 12:46:13;;;;;;;9.77;4.10;;;9.10;49.40;;;;;;5076950;28;20016;-69
2022/03/11 12:48:44;;;;;;;9.93;4.65;;;9.20;49.10;;;;;;5076261;28;20366;-70
2022/03/11 12:51:21;;;;;;;8.55;4.00;;;9.20;49.10;;;;;;5076170;28;20024;-70
2022/03/11 12:53:50;;;;;;;10.23;3.83;;;9.30;49.10;;;;;;5076158;28;20024;-70
2022/03/11 12:56:21;;;;;;;8.68;4.05;;;9.30;49.20;;;;;;5059770;28;20028;-70
2022/03/11 12:58:48;;;;;;;7.20;3.97;;;9.40;49.80;;;;;;5080260;28;20047;-70